Huvudsida
METAR-TAF:

METAR-TAF

Flygplatser :

Wallis, Frankrike

latitud: 13-14S, longitud: 176-10W, höjd: 23 m

METAR: saknas

Tid: 09:07 (21:07 UTC)

Väderprognos

Denna rapport gjordes för 10 timmar och 7 minuter sedan, klockan 11:00 UTC
Prognos gäller från 20 kl. 12 UTC till 21 kl. 12 UTC
Vind 5 kt från sydväst
Sikt 10 km eller mer
Spridda moln på en höjd av 2500 ft

TAF: NLWW 201100Z 2012/2112 23005KT 9999 SCT025

Aktuella väderrapporter och prognoser från 4000 flygplatser (METAR- och TAF-rapporter).

De tillgängliga stationerna syns som gula och röda prickar på kartan.

För musen över prickarna för att se namnen på stationerna.

Klicka sedan för att få väderrapporter och prognoser.

För att ändra kartan: Klicka på de gröna knapparna med ett svart kors på för att zooma in; den gröna knappen med ett streck på för att zooma ut; eller på de gröna pilarna för angränsande kartor.


METAR-TAF: